Ashton, Illinois
Current Conditions -  °F | °C
As of 1:15 PM on Friday 21 Nov 2014 (Local Time) from KRPJ Reporting Station
Clear Clear  
Wind Chill: -6°   Ceiling: Unl
Heat Index:   Visibility: 10mi
Dew Point: -15°   Wind: 14mph
Humidity: 32%   Direction: 180°S
Pressure: 30.35"   Gusts: NA
Location:  41.87°N, 89.22°W
Report Text: KRPJ 211915Z AUTO 18012KT 10SM CLR 00/M15 A3035 RMK AO2 T10031151
Loading
Personal Weather Stations






























Interactive Weather Map New forecast layout! Learn more

10-Day Weather Forecast

Advertisements
Track Severe Weather on mobile